sensor_id;sensor_type;location;lat;lon;timestamp;pressure;altitude;pressure_sealevel;temperature;humidity
75219;BME280;63801;49.414;19.474;2024-02-04T00:00:49;93873.97;;;4.94;89.50
75219;BME280;63801;49.414;19.474;2024-02-04T00:02:49;93871.28;;;4.94;89.71
75219;BME280;63801;49.414;19.474;2024-02-04T00:04:53;93873.97;;;4.94;89.71
75219;BME280;63801;49.414;19.474;2024-02-04T00:06:53;93865.16;;;4.94;89.74
75219;BME280;63801;49.414;19.474;2024-02-04T00:08:53;93859.31;;;4.92;89.67
75219;BME280;63801;49.414;19.474;2024-02-04T00:10:54;93877.09;;;4.96;89.55
75219;BME280;63801;49.414;19.474;2024-02-04T00:12:55;93860.28;;;4.96;89.60
75219;BME280;63801;49.414;19.474;2024-02-04T00:14:56;93864.84;;;4.95;89.60
75219;BME280;63801;49.414;19.474;2024-02-04T00:16:56;93858.38;;;4.96;89.63
75219;BME280;63801;49.414;19.474;2024-02-04T00:18:56;93852.59;;;4.94;89.58
75219;BME280;63801;49.414;19.474;2024-02-04T00:20:57;93853.38;;;4.95;89.67
75219;BME280;63801;49.414;19.474;2024-02-04T00:22:57;93859.03;;;4.93;89.67
75219;BME280;63801;49.414;19.474;2024-02-04T00:24:57;93850.53;;;4.91;89.63
75219;BME280;63801;49.414;19.474;2024-02-04T00:27:01;93832.72;;;4.78;89.70
75219;BME280;63801;49.414;19.474;2024-02-04T00:29:02;93842.97;;;4.85;89.37
75219;BME280;63801;49.414;19.474;2024-02-04T00:31:02;93834.47;;;4.83;89.88
75219;BME280;63801;49.414;19.474;2024-02-04T00:33:03;93833.69;;;4.82;89.64
75219;BME280;63801;49.414;19.474;2024-02-04T00:35:04;93833.06;;;4.77;89.88
75219;BME280;63801;49.414;19.474;2024-02-04T00:37:04;93835.09;;;4.80;89.66
75219;BME280;63801;49.414;19.474;2024-02-04T00:39:05;93833.50;;;4.79;89.77
75219;BME280;63801;49.414;19.474;2024-02-04T00:41:07;93827.22;;;4.75;89.78
75219;BME280;63801;49.414;19.474;2024-02-04T00:43:07;93837.31;;;4.78;89.79
75219;BME280;63801;49.414;19.474;2024-02-04T00:45:08;93840.75;;;4.78;89.63
75219;BME280;63801;49.414;19.474;2024-02-04T00:47:08;93833.84;;;4.77;89.83
75219;BME280;63801;49.414;19.474;2024-02-04T00:49:09;93833.84;;;4.77;89.85
75219;BME280;63801;49.414;19.474;2024-02-04T00:51:09;93822.22;;;4.73;89.79
75219;BME280;63801;49.414;19.474;2024-02-04T00:53:10;93826.13;;;4.76;89.97
75219;BME280;63801;49.414;19.474;2024-02-04T00:55:10;93828.81;;;4.76;89.84
75219;BME280;63801;49.414;19.474;2024-02-04T00:57:10;93825.84;;;4.77;89.79
75219;BME280;63801;49.414;19.474;2024-02-04T00:59:11;93828.81;;;4.76;89.59
75219;BME280;63801;49.414;19.474;2024-02-04T01:01:12;93827.38;;;4.78;89.74
75219;BME280;63801;49.414;19.474;2024-02-04T01:03:12;93827.72;;;4.77;89.77
75219;BME280;63801;49.414;19.474;2024-02-04T01:05:13;93830.97;;;4.74;89.92
75219;BME280;63801;49.414;19.474;2024-02-04T01:07:14;93831.78;;;4.74;89.84
75219;BME280;63801;49.414;19.474;2024-02-04T01:09:15;93836.03;;;4.75;89.97
75219;BME280;63801;49.414;19.474;2024-02-04T01:11:15;93825.84;;;4.77;89.70
75219;BME280;63801;49.414;19.474;2024-02-04T01:13:15;93831.47;;;4.76;89.70
75219;BME280;63801;49.414;19.474;2024-02-04T01:15:16;93828.31;;;4.74;89.80
75219;BME280;63801;49.414;19.474;2024-02-04T01:17:16;93832.91;;;4.73;89.83
75219;BME280;63801;49.414;19.474;2024-02-04T01:19:17;93826.75;;;4.73;89.68
75219;BME280;63801;49.414;19.474;2024-02-04T01:21:17;93802.72;;;4.73;89.78
75219;BME280;63801;49.414;19.474;2024-02-04T01:23:17;93808.38;;;4.71;89.91
75219;BME280;63801;49.414;19.474;2024-02-04T01:25:18;93803.03;;;4.71;89.83
75219;BME280;63801;49.414;19.474;2024-02-04T01:27:18;93802.88;;;4.68;90.13
75219;BME280;63801;49.414;19.474;2024-02-04T01:29:19;93805.22;;;4.69;90.05
75219;BME280;63801;49.414;19.474;2024-02-04T01:31:19;93800.19;;;4.68;90.15
75219;BME280;63801;49.414;19.474;2024-02-04T01:33:19;93794.06;;;4.67;89.99
75219;BME280;63801;49.414;19.474;2024-02-04T01:35:20;93801.00;;;4.68;89.87
75219;BME280;63801;49.414;19.474;2024-02-04T01:37:20;93775.09;;;4.69;89.82
75219;BME280;63801;49.414;19.474;2024-02-04T01:39:20;93784.97;;;4.68;89.95
75219;BME280;63801;49.414;19.474;2024-02-04T01:41:21;93770.03;;;4.67;89.79
75219;BME280;63801;49.414;19.474;2024-02-04T01:43:21;93772.72;;;4.67;90.49
75219;BME280;63801;49.414;19.474;2024-02-04T01:45:22;93766.88;;;4.65;90.00
75219;BME280;63801;49.414;19.474;2024-02-04T01:47:23;93788.72;;;4.67;90.02
75219;BME280;63801;49.414;19.474;2024-02-04T01:49:23;93784.47;;;4.66;89.91
75219;BME280;63801;49.414;19.474;2024-02-04T01:51:24;93783.09;;;4.69;90.00
75219;BME280;63801;49.414;19.474;2024-02-04T01:53:25;93787.66;;;4.68;89.79
75219;BME280;63801;49.414;19.474;2024-02-04T01:55:26;93802.41;;;4.74;89.82
75219;BME280;63801;49.414;19.474;2024-02-04T01:57:27;93787.50;;;4.73;89.52
75219;BME280;63801;49.414;19.474;2024-02-04T01:59:29;93803.34;;;4.78;89.57
75219;BME280;63801;49.414;19.474;2024-02-04T02:01:31;93805.41;;;4.81;89.50
75219;BME280;63801;49.414;19.474;2024-02-04T02:03:32;93797.09;;;4.83;89.76
75219;BME280;63801;49.414;19.474;2024-02-04T02:05:32;93807.75;;;4.83;89.39
75219;BME280;63801;49.414;19.474;2024-02-04T02:07:33;93807.75;;;4.83;89.04
75219;BME280;63801;49.414;19.474;2024-02-04T02:09:33;93809.66;;;4.82;89.06
75219;BME280;63801;49.414;19.474;2024-02-04T02:11:40;93811.22;;;4.83;89.12
75219;BME280;63801;49.414;19.474;2024-02-04T02:13:42;93809.34;;;4.84;89.08
75219;BME280;63801;49.414;19.474;2024-02-04T02:15:45;93813.91;;;4.83;88.94
75219;BME280;63801;49.414;19.474;2024-02-04T02:19:57;93816.25;;;4.85;88.83
75219;BME280;63801;49.414;19.474;2024-02-04T02:26:22;93810.63;;;4.86;89.12
75219;BME280;63801;49.414;19.474;2024-02-04T02:28:23;93802.63;;;4.86;88.97
75219;BME280;63801;49.414;19.474;2024-02-04T02:30:23;93809.84;;;4.86;88.78
75219;BME280;63801;49.414;19.474;2024-02-04T02:32:24;93805.75;;;4.88;88.89
75219;BME280;63801;49.414;19.474;2024-02-04T02:34:25;93798.38;;;4.85;88.79
75219;BME280;63801;49.414;19.474;2024-02-04T02:36:29;93797.28;;;4.86;89.02
75219;BME280;63801;49.414;19.474;2024-02-04T02:38:44;93801.19;;;4.89;88.90
75219;BME280;63801;49.414;19.474;2024-02-04T02:40:53;93810.00;;;4.89;88.81
75219;BME280;63801;49.414;19.474;2024-02-04T02:42:55;93819.59;;;4.90;88.79
75219;BME280;63801;49.414;19.474;2024-02-04T02:44:56;93818.00;;;4.89;88.91
75219;BME280;63801;49.414;19.474;2024-02-04T02:46:58;93813.13;;;4.91;88.83
75219;BME280;63801;49.414;19.474;2024-02-04T02:49:00;93792.09;;;4.90;88.92
75219;BME280;63801;49.414;19.474;2024-02-04T02:51:01;93794.44;;;4.91;88.95
75219;BME280;63801;49.414;19.474;2024-02-04T02:53:01;93782.19;;;4.90;89.02
75219;BME280;63801;49.414;19.474;2024-02-04T02:55:02;93782.19;;;4.90;89.01
75219;BME280;63801;49.414;19.474;2024-02-04T02:57:02;93791.75;;;4.91;89.06
75219;BME280;63801;49.414;19.474;2024-02-04T02:59:02;93753.91;;;4.81;88.87
75219;BME280;63801;49.414;19.474;2024-02-04T03:01:03;93789.09;;;4.91;88.93
75219;BME280;63801;49.414;19.474;2024-02-04T03:03:04;93778.41;;;4.91;89.05
75219;BME280;63801;49.414;19.474;2024-02-04T03:05:04;93773.53;;;4.93;88.91
75219;BME280;63801;49.414;19.474;2024-02-04T03:07:05;93780.94;;;4.96;88.97
75219;BME280;63801;49.414;19.474;2024-02-04T03:09:07;93789.28;;;4.95;88.97
75219;BME280;63801;49.414;19.474;2024-02-04T03:11:08;93788.47;;;4.94;88.99
75219;BME280;63801;49.414;19.474;2024-02-04T03:13:08;93784.38;;;4.97;88.97
75219;BME280;63801;49.414;19.474;2024-02-04T03:15:09;93780.63;;;4.98;88.94
75219;BME280;63801;49.414;19.474;2024-02-04T03:17:09;93766.31;;;4.94;88.94
75219;BME280;63801;49.414;19.474;2024-02-04T03:19:09;93767.91;;;4.95;89.08
75219;BME280;63801;49.414;19.474;2024-02-04T03:21:16;93761.78;;;4.94;89.00
75219;BME280;63801;49.414;19.474;2024-02-04T03:23:16;93747.63;;;4.94;89.08
75219;BME280;63801;49.414;19.474;2024-02-04T03:25:16;93760.19;;;4.93;89.12
75219;BME280;63801;49.414;19.474;2024-02-04T03:27:17;93757.66;;;4.88;89.50
75219;BME280;63801;49.414;19.474;2024-02-04T03:29:18;93763.00;;;4.88;89.55
75219;BME280;63801;49.414;19.474;2024-02-04T03:31:22;93751.38;;;4.84;89.70
75219;BME280;63801;49.414;19.474;2024-02-04T03:33:22;93740.69;;;4.84;89.72
75219;BME280;63801;49.414;19.474;2024-02-04T03:35:23;93732.19;;;4.82;90.06
75219;BME280;63801;49.414;19.474;2024-02-04T03:37:23;93735.66;;;4.83;89.70
75219;BME280;63801;49.414;19.474;2024-02-04T03:39:24;93738.50;;;4.86;89.66
75219;BME280;63801;49.414;19.474;2024-02-04T03:41:24;93728.44;;;4.83;89.60
75219;BME280;63801;49.414;19.474;2024-02-04T03:43:24;93722.50;;;4.86;89.68
75219;BME280;63801;49.414;19.474;2024-02-04T03:45:25;93730.97;;;4.88;89.64
75219;BME280;63801;49.414;19.474;2024-02-04T03:47:25;93732.53;;;4.89;89.56
75219;BME280;63801;49.414;19.474;2024-02-04T03:49:26;93721.84;;;4.89;89.34
75219;BME280;63801;49.414;19.474;2024-02-04T03:51:26;93723.44;;;4.90;89.65
75219;BME280;63801;49.414;19.474;2024-02-04T03:53:26;93719.66;;;4.91;89.67
75219;BME280;63801;49.414;19.474;2024-02-04T03:55:27;93736.47;;;4.92;89.58
75219;BME280;63801;49.414;19.474;2024-02-04T03:57:27;93730.31;;;4.91;89.54
75219;BME280;63801;49.414;19.474;2024-02-04T03:59:27;93730.31;;;4.91;89.67
75219;BME280;63801;49.414;19.474;2024-02-04T04:01:28;93730.31;;;4.91;89.62
75219;BME280;63801;49.414;19.474;2024-02-04T04:03:28;93728.78;;;4.90;89.60
75219;BME280;63801;49.414;19.474;2024-02-04T04:05:29;93731.91;;;4.92;89.61
75219;BME280;63801;49.414;19.474;2024-02-04T04:07:29;93720.44;;;4.92;89.79
75219;BME280;63801;49.414;19.474;2024-02-04T04:09:29;93726.56;;;4.92;89.54
75219;BME280;63801;49.414;19.474;2024-02-04T04:11:29;93738.03;;;4.93;90.25
75219;BME280;63801;49.414;19.474;2024-02-04T04:13:30;93740.88;;;4.96;89.57
75219;BME280;63801;49.414;19.474;2024-02-04T04:15:32;93745.13;;;4.97;89.56
75219;BME280;63801;49.414;19.474;2024-02-04T04:17:32;93732.84;;;4.96;89.51
75219;BME280;63801;49.414;19.474;2024-02-04T04:19:32;93749.38;;;4.98;89.46
75219;BME280;63801;49.414;19.474;2024-02-04T04:21:37;93742.44;;;4.97;89.30
75219;BME280;63801;49.414;19.474;2024-02-04T04:23:37;93737.41;;;4.96;89.46
75219;BME280;63801;49.414;19.474;2024-02-04T04:25:38;93722.94;;;4.97;89.43
75219;BME280;63801;49.414;19.474;2024-02-04T04:27:38;93720.63;;;4.95;89.51
75219;BME280;63801;49.414;19.474;2024-02-04T04:29:38;93729.72;;;4.94;89.47
75219;BME280;63801;49.414;19.474;2024-02-04T04:31:39;93723.75;;;4.97;89.38
75219;BME280;63801;49.414;19.474;2024-02-04T04:33:39;93734.72;;;4.96;89.39
75219;BME280;63801;49.414;19.474;2024-02-04T04:35:40;93726.25;;;4.94;89.34
75219;BME280;63801;49.414;19.474;2024-02-04T04:37:40;93727.84;;;4.95;89.45
75219;BME280;63801;49.414;19.474;2024-02-04T04:39:40;93730.50;;;4.95;89.28
75219;BME280;63801;49.414;19.474;2024-02-04T04:41:44;93726.25;;;4.94;89.43
75219;BME280;63801;49.414;19.474;2024-02-04T04:43:44;93716.22;;;4.91;89.48
75219;BME280;63801;49.414;19.474;2024-02-04T04:45:44;93724.97;;;4.91;89.50
75219;BME280;63801;49.414;19.474;2024-02-04T04:47:45;93728.78;;;4.90;89.37
75219;BME280;63801;49.414;19.474;2024-02-04T04:49:45;93738.66;;;4.90;89.24
75219;BME280;63801;49.414;19.474;2024-02-04T04:51:45;93741.00;;;4.91;89.46
75219;BME280;63801;49.414;19.474;2024-02-04T04:53:48;93733.00;;;4.91;89.33
75219;BME280;63801;49.414;19.474;2024-02-04T04:55:49;93745.91;;;4.89;89.24
75219;BME280;63801;49.414;19.474;2024-02-04T04:57:49;93743.22;;;4.89;89.38
75219;BME280;63801;49.414;19.474;2024-02-04T04:59:50;93752.81;;;4.90;89.29
75219;BME280;63801;49.414;19.474;2024-02-04T05:01:50;93757.81;;;4.92;89.42
75219;BME280;63801;49.414;19.474;2024-02-04T05:03:51;93757.81;;;4.92;89.23
75219;BME280;63801;49.414;19.474;2024-02-04T05:05:51;93760.81;;;4.90;89.03
75219;BME280;63801;49.414;19.474;2024-02-04T05:07:51;93752.81;;;4.90;89.30
75219;BME280;63801;49.414;19.474;2024-02-04T05:09:52;93757.66;;;4.88;89.24
75219;BME280;63801;49.414;19.474;2024-02-04T05:11:52;93761.13;;;4.89;89.35
75219;BME280;63801;49.414;19.474;2024-02-04T05:13:53;93770.22;;;4.88;89.34
75219;BME280;63801;49.414;19.474;2024-02-04T05:15:53;93770.72;;;4.90;89.29
75219;BME280;63801;49.414;19.474;2024-02-04T05:17:53;93773.06;;;4.91;89.31
75219;BME280;63801;49.414;19.474;2024-02-04T05:19:54;93763.97;;;4.92;89.43
75219;BME280;63801;49.414;19.474;2024-02-04T05:21:54;93767.13;;;4.94;89.37
75219;BME280;63801;49.414;19.474;2024-02-04T05:23:55;93758.78;;;4.96;89.39
75219;BME280;63801;49.414;19.474;2024-02-04T05:25:55;93768.69;;;4.95;89.33
75219;BME280;63801;49.414;19.474;2024-02-04T05:27:55;93777.16;;;4.97;89.40
75219;BME280;63801;49.414;19.474;2024-02-04T05:29:56;93783.75;;;5.00;89.47
75219;BME280;63801;49.414;19.474;2024-02-04T05:31:56;93780.78;;;5.02;89.42
75219;BME280;63801;49.414;19.474;2024-02-04T05:33:56;93765.25;;;5.04;89.43
75219;BME280;63801;49.414;19.474;2024-02-04T05:35:57;93765.41;;;5.07;89.36
75219;BME280;63801;49.414;19.474;2024-02-04T05:37:57;93760.84;;;5.08;89.35
75219;BME280;63801;49.414;19.474;2024-02-04T05:39:57;93757.38;;;5.07;89.28
75219;BME280;63801;49.414;19.474;2024-02-04T05:41:59;93740.06;;;5.05;89.18
75219;BME280;63801;49.414;19.474;2024-02-04T05:43:59;93745.41;;;5.05;89.09
75219;BME280;63801;49.414;19.474;2024-02-04T05:45:59;93749.22;;;5.04;89.21
75219;BME280;63801;49.414;19.474;2024-02-04T05:47:59;93726.25;;;5.03;89.12
75219;BME280;63801;49.414;19.474;2024-02-04T05:50:00;93722.00;;;5.02;89.01
75219;BME280;63801;49.414;19.474;2024-02-04T05:52:00;93729.88;;;4.98;88.99
75219;BME280;63801;49.414;19.474;2024-02-04T05:54:01;93738.81;;;4.93;88.94
75219;BME280;63801;49.414;19.474;2024-02-04T05:56:01;93744.81;;;4.90;88.98
75219;BME280;63801;49.414;19.474;2024-02-04T05:58:01;93730.50;;;4.86;89.15
75219;BME280;63801;49.414;19.474;2024-02-04T06:00:02;93743.06;;;4.86;89.10
75219;BME280;63801;49.414;19.474;2024-02-04T06:02:03;93742.88;;;4.82;89.10
75219;BME280;63801;49.414;19.474;2024-02-04T06:04:04;93740.22;;;4.82;89.04
75219;BME280;63801;49.414;19.474;2024-02-04T06:06:04;93741.34;;;4.81;89.11
75219;BME280;63801;49.414;19.474;2024-02-04T06:08:05;93735.84;;;4.78;89.18
75219;BME280;63801;49.414;19.474;2024-02-04T06:10:09;93716.34;;;4.69;89.26
75219;BME280;63801;49.414;19.474;2024-02-04T06:12:09;93727.97;;;4.73;89.29
75219;BME280;63801;49.414;19.474;2024-02-04T06:14:09;93739.25;;;4.70;89.32
75219;BME280;63801;49.414;19.474;2024-02-04T06:16:10;93734.25;;;4.68;89.35
75219;BME280;63801;49.414;19.474;2024-02-04T06:18:12;93741.47;;;4.68;89.26
75219;BME280;63801;49.414;19.474;2024-02-04T06:20:12;93746.31;;;4.66;89.31
75219;BME280;63801;49.414;19.474;2024-02-04T06:22:14;93765.78;;;4.66;89.36
75219;BME280;63801;49.414;19.474;2024-02-04T06:24:14;93774.88;;;4.65;89.52
75219;BME280;63801;49.414;19.474;2024-02-04T06:26:15;93760.00;;;4.64;89.83
75219;BME280;63801;49.414;19.474;2024-02-04T06:28:15;93765.78;;;4.66;89.78
75219;BME280;63801;49.414;19.474;2024-02-04T06:30:16;93762.81;;;4.68;89.65
75219;BME280;63801;49.414;19.474;2024-02-04T06:32:17;93773.66;;;4.71;89.73
75219;BME280;63801;49.414;19.474;2024-02-04T06:34:20;93776.50;;;4.75;89.68
75219;BME280;63801;49.414;19.474;2024-02-04T06:36:20;93773.53;;;4.76;89.79
75219;BME280;63801;49.414;19.474;2024-02-04T06:38:21;93787.81;;;4.80;89.70
75219;BME280;63801;49.414;19.474;2024-02-04T06:40:21;93798.19;;;4.82;89.76
75219;BME280;63801;49.414;19.474;2024-02-04T06:42:21;93817.06;;;4.85;89.66
75219;BME280;63801;49.414;19.474;2024-02-04T06:44:22;93807.94;;;4.86;89.64
75219;BME280;63801;49.414;19.474;2024-02-04T06:46:28;93820.53;;;4.94;89.44
75219;BME280;63801;49.414;19.474;2024-02-04T06:48:29;93812.69;;;4.98;89.43
75219;BME280;63801;49.414;19.474;2024-02-04T06:50:29;93810.81;;;4.98;89.34
75219;BME280;63801;49.414;19.474;2024-02-04T06:52:29;93826.19;;;5.02;89.28
75219;BME280;63801;49.414;19.474;2024-02-04T06:54:30;93824.00;;;5.04;89.32
75219;BME280;63801;49.414;19.474;2024-02-04T06:56:30;93832.66;;;5.09;89.27
75219;BME280;63801;49.414;19.474;2024-02-04T06:58:30;93819.47;;;5.13;89.16
75219;BME280;63801;49.414;19.474;2024-02-04T07:00:31;93822.16;;;5.13;89.18
75219;BME280;63801;49.414;19.474;2024-02-04T07:02:31;93817.91;;;5.12;88.96
75219;BME280;63801;49.414;19.474;2024-02-04T07:04:32;93823.69;;;5.14;89.06
75219;BME280;63801;49.414;19.474;2024-02-04T07:06:32;93819.31;;;5.18;89.00
75219;BME280;63801;49.414;19.474;2024-02-04T07:08:33;93830.97;;;5.22;89.05
75219;BME280;63801;49.414;19.474;2024-02-04T07:10:33;93825.94;;;5.29;89.34
75219;BME280;63801;49.414;19.474;2024-02-04T07:12:33;93824.06;;;5.38;89.29
75219;BME280;63801;49.414;19.474;2024-02-04T07:14:34;93833.31;;;5.40;89.09
75219;BME280;63801;49.414;19.474;2024-02-04T07:16:34;93827.38;;;5.43;89.01
75219;BME280;63801;49.414;19.474;2024-02-04T07:18:34;93826.56;;;5.43;88.31
75219;BME280;63801;49.414;19.474;2024-02-04T07:20:35;93816.19;;;5.41;88.04
75219;BME280;63801;49.414;19.474;2024-02-04T07:22:35;93805.03;;;5.31;87.79
75219;BME280;63801;49.414;19.474;2024-02-04T07:24:36;93814.00;;;5.35;87.75
75219;BME280;63801;49.414;19.474;2024-02-04T07:26:36;93783.47;;;5.36;87.93
75219;BME280;63801;49.414;19.474;2024-02-04T07:28:36;93779.41;;;5.38;87.97
75219;BME280;63801;49.414;19.474;2024-02-04T07:30:37;93772.31;;;5.42;87.96
75219;BME280;63801;49.414;19.474;2024-02-04T07:32:37;93770.44;;;5.60;89.32
75219;BME280;63801;49.414;19.474;2024-02-04T07:34:37;93762.75;;;6.22;89.89
75219;BME280;63801;49.414;19.474;2024-02-04T07:36:38;93778.66;;;6.95;88.75
75219;BME280;63801;49.414;19.474;2024-02-04T07:38:38;93767.63;;;7.58;89.19
75219;BME280;63801;49.414;19.474;2024-02-04T07:40:38;93780.94;;;8.21;86.78
75219;BME280;63801;49.414;19.474;2024-02-04T07:42:39;93777.78;;;8.88;87.67
75219;BME280;63801;49.414;19.474;2024-02-04T07:44:39;93770.34;;;9.21;84.78
75219;BME280;63801;49.414;19.474;2024-02-04T07:46:39;93774.19;;;9.20;82.98
75219;BME280;63801;49.414;19.474;2024-02-04T07:48:40;93775.31;;;9.19;82.21
75219;BME280;63801;49.414;19.474;2024-02-04T07:50:40;93769.03;;;9.03;82.05
75219;BME280;63801;49.414;19.474;2024-02-04T07:52:40;93766.81;;;8.93;82.57
75219;BME280;63801;49.414;19.474;2024-02-04T07:54:41;93762.06;;;9.26;84.68
75219;BME280;63801;49.414;19.474;2024-02-04T07:56:41;93771.25;;;9.65;84.87
75219;BME280;63801;49.414;19.474;2024-02-04T07:58:41;93768.41;;;9.86;83.52
75219;BME280;63801;49.414;19.474;2024-02-04T08:00:42;93765.41;;;9.75;80.76
75219;BME280;63801;49.414;19.474;2024-02-04T08:02:44;93752.69;;;9.48;78.74
75219;BME280;63801;49.414;19.474;2024-02-04T08:04:44;93751.34;;;9.14;78.20
75219;BME280;63801;49.414;19.474;2024-02-04T08:06:44;93765.69;;;8.82;77.63
75219;BME280;63801;49.414;19.474;2024-02-04T08:08:45;93771.97;;;8.49;77.89
75219;BME280;63801;49.414;19.474;2024-02-04T08:10:47;93765.22;;;8.31;79.34
75219;BME280;63801;49.414;19.474;2024-02-04T08:12:48;93754.84;;;8.09;78.19
75219;BME280;63801;49.414;19.474;2024-02-04T08:14:50;93762.94;;;7.88;78.37
75219;BME280;63801;49.414;19.474;2024-02-04T08:16:51;93754.84;;;7.76;79.73
75219;BME280;63801;49.414;19.474;2024-02-04T08:18:51;93754.72;;;7.73;79.47
75219;BME280;63801;49.414;19.474;2024-02-04T08:20:51;93757.81;;;7.62;79.99
75219;BME280;63801;49.414;19.474;2024-02-04T08:22:54;93747.16;;;7.54;79.69
75219;BME280;63801;49.414;19.474;2024-02-04T08:24:54;93760.50;;;7.42;79.65
75219;BME280;63801;49.414;19.474;2024-02-04T08:26:55;93757.63;;;7.26;79.40
75219;BME280;63801;49.414;19.474;2024-02-04T08:28:55;93764.81;;;7.13;79.65
75219;BME280;63801;49.414;19.474;2024-02-04T08:30:55;93747.44;;;6.99;79.55
75219;BME280;63801;49.414;19.474;2024-02-04T08:32:56;93755.84;;;6.89;79.67
75219;BME280;63801;49.414;19.474;2024-02-04T08:34:57;93757.31;;;6.77;79.72
75219;BME280;63801;49.414;19.474;2024-02-04T08:36:57;93773.25;;;6.74;80.40
75219;BME280;63801;49.414;19.474;2024-02-04T08:38:57;93761.75;;;6.73;80.83
75219;BME280;63801;49.414;19.474;2024-02-04T08:40:58;93759.53;;;6.75;80.75
75219;BME280;63801;49.414;19.474;2024-02-04T08:42:58;93749.47;;;6.72;80.61
75219;BME280;63801;49.414;19.474;2024-02-04T08:44:58;93755.03;;;6.67;80.61
75219;BME280;63801;49.414;19.474;2024-02-04T08:46:59;93756.59;;;6.60;80.59
75219;BME280;63801;49.414;19.474;2024-02-04T08:48:59;93754.75;;;6.52;80.60
75219;BME280;63801;49.414;19.474;2024-02-04T08:51:00;93772.44;;;6.44;80.77
75219;BME280;63801;49.414;19.474;2024-02-04T08:53:00;93772.16;;;6.37;80.89
75219;BME280;63801;49.414;19.474;2024-02-04T08:55:00;93775.63;;;6.29;81.30
75219;BME280;63801;49.414;19.474;2024-02-04T08:57:04;93776.59;;;6.24;81.45
75219;BME280;63801;49.414;19.474;2024-02-04T08:59:04;93774.44;;;6.18;81.54
75219;BME280;63801;49.414;19.474;2024-02-04T09:01:06;93792.38;;;6.17;81.94
75219;BME280;63801;49.414;19.474;2024-02-04T09:03:07;93802.88;;;6.31;82.69
75219;BME280;63801;49.414;19.474;2024-02-04T09:05:07;93797.47;;;6.48;82.65
75219;BME280;63801;49.414;19.474;2024-02-04T09:07:08;93803.69;;;6.69;82.86
75219;BME280;63801;49.414;19.474;2024-02-04T09:09:08;93801.38;;;6.89;82.18
75219;BME280;63801;49.414;19.474;2024-02-04T09:11:09;93799.63;;;6.93;81.42
75219;BME280;63801;49.414;19.474;2024-02-04T09:13:09;93806.88;;;6.92;81.16
75219;BME280;63801;49.414;19.474;2024-02-04T09:15:10;93799.63;;;6.93;81.40
75219;BME280;63801;49.414;19.474;2024-02-04T09:17:10;93789.78;;;7.05;81.70
75219;BME280;63801;49.414;19.474;2024-02-04T09:19:13;93808.16;;;7.15;81.45
75219;BME280;63801;49.414;19.474;2024-02-04T09:21:13;93820.94;;;7.39;82.23
75219;BME280;63801;49.414;19.474;2024-02-04T09:23:14;93827.16;;;7.73;81.96
75219;BME280;63801;49.414;19.474;2024-02-04T09:25:14;93822.59;;;8.06;80.87
75219;BME280;63801;49.414;19.474;2024-02-04T09:27:15;93833.75;;;8.29;80.90
75219;BME280;63801;49.414;19.474;2024-02-04T09:29:15;93837.19;;;8.50;80.98
75219;BME280;63801;49.414;19.474;2024-02-04T09:31:16;93827.41;;;8.78;80.33
75219;BME280;63801;49.414;19.474;2024-02-04T09:33:16;93822.72;;;8.87;78.59
75219;BME280;63801;49.414;19.474;2024-02-04T09:35:16;93828.97;;;8.79;78.04
75219;BME280;63801;49.414;19.474;2024-02-04T09:37:17;93847.63;;;8.64;77.84
75219;BME280;63801;49.414;19.474;2024-02-04T09:39:17;93864.16;;;8.41;76.95
75219;BME280;63801;49.414;19.474;2024-02-04T09:41:18;93866.47;;;8.10;76.36
75219;BME280;63801;49.414;19.474;2024-02-04T09:43:18;93860.28;;;7.77;76.72
75219;BME280;63801;49.414;19.474;2024-02-04T09:45:20;93858.69;;;7.55;77.53
75219;BME280;63801;49.414;19.474;2024-02-04T09:47:21;93854.56;;;7.37;77.66
75219;BME280;63801;49.414;19.474;2024-02-04T09:49:22;93866.00;;;7.25;77.98
75219;BME280;63801;49.414;19.474;2024-02-04T09:51:22;93863.69;;;7.15;78.26
75219;BME280;63801;49.414;19.474;2024-02-04T09:53:34;93878.34;;;7.09;78.41
75219;BME280;63801;49.414;19.474;2024-02-04T09:55:35;93886.00;;;6.98;78.57
75219;BME280;63801;49.414;19.474;2024-02-04T09:57:36;93880.50;;;6.95;78.77
75219;BME280;63801;49.414;19.474;2024-02-04T09:59:36;93871.00;;;6.97;79.44
75219;BME280;63801;49.414;19.474;2024-02-04T10:01:37;93865.53;;;7.23;80.02
75219;BME280;63801;49.414;19.474;2024-02-04T10:03:38;93878.03;;;7.69;80.91
75219;BME280;63801;49.414;19.474;2024-02-04T10:05:38;93869.97;;;8.31;80.07
75219;BME280;63801;49.414;19.474;2024-02-04T10:07:39;93859.34;;;8.92;79.92
75219;BME280;63801;49.414;19.474;2024-02-04T10:09:39;93852.94;;;9.57;78.29
75219;BME280;63801;49.414;19.474;2024-02-04T10:11:40;93848.91;;;10.03;76.30
75219;BME280;63801;49.414;19.474;2024-02-04T10:13:48;93841.38;;;10.36;74.76
75219;BME280;63801;49.414;19.474;2024-02-04T10:15:48;93837.22;;;10.39;73.20
75219;BME280;63801;49.414;19.474;2024-02-04T10:17:49;93832.47;;;10.48;74.77
75219;BME280;63801;49.414;19.474;2024-02-04T10:19:50;93820.13;;;10.63;74.19
75219;BME280;63801;49.414;19.474;2024-02-04T10:21:58;93809.88;;;10.53;72.07
75219;BME280;63801;49.414;19.474;2024-02-04T10:23:59;93818.16;;;10.32;72.83
75219;BME280;63801;49.414;19.474;2024-02-04T10:26:00;93820.56;;;10.21;71.89
75219;BME280;63801;49.414;19.474;2024-02-04T10:28:00;93800.59;;;10.10;72.54
75219;BME280;63801;49.414;19.474;2024-02-04T10:30:01;93786.34;;;10.22;72.67
75219;BME280;63801;49.414;19.474;2024-02-04T10:32:01;93783.75;;;10.41;72.80
75219;BME280;63801;49.414;19.474;2024-02-04T10:34:02;93793.00;;;10.56;72.16
75219;BME280;63801;49.414;19.474;2024-02-04T10:36:03;93792.41;;;10.78;72.57
75219;BME280;63801;49.414;19.474;2024-02-04T10:38:04;93800.81;;;11.08;72.98
75219;BME280;63801;49.414;19.474;2024-02-04T10:40:05;93793.00;;;11.38;70.30
75219;BME280;63801;49.414;19.474;2024-02-04T10:42:06;93788.06;;;11.40;68.57
75219;BME280;63801;49.414;19.474;2024-02-04T10:44:09;93771.41;;;11.38;68.96
75219;BME280;63801;49.414;19.474;2024-02-04T10:46:13;93760.56;;;11.34;67.61